Arnold, PA

9:12 AM EST on February 09, 2016 (GMT -0500)
40 Acres | | Change Station
CLOSE
Current Station
Personal Weather Station
Location: New Kensington, PA
Elevation: 1003 ft
Nearby Weather Stations
Active Advisory: Winter Weather Advisory

Elev 1003 ft 40.58 °N, 79.74 °W | Updated 2 seconds ago

Snow
Snow
32.4 °F
Feels Like 32 °F
N
0.0
Wind Variable Wind from North
Gusts 1.0 mph

Today
High -- | Low -- °F
--% Chance of Precip.
Yesterday
High -- | Low -- °F
Precip. -- in
Pressure 29.54 in
Visibility 2.0 miles
Clouds Overcast 600 ft
Windchill 32 °F
Dew Point 31 °F
Humidity 95%
Rainfall 0.00 in
Snow Depth Not available.
7:20 AM 5:46 PM
New Moon, 1% visible
SPECI KAGC 091407Z 26008KT 2SM -SN BR OVC006 01/M01 A2954 RMK AO2 CIG 004V010 P0000 T00061011
Pressure 29.54 in
Visibility 2.0 miles
Clouds Overcast 600 ft
Windchill 32 °F
Dew Point 31 °F
Humidity 95%
Rainfall 0.00 in
Snow Depth Not available.
7:20 AM 5:46 PM
New Moon, 1% visible
SPECI KAGC 091407Z 26008KT 2SM -SN BR OVC006 01/M01 A2954 RMK AO2 CIG 004V010 P0000 T00061011

10-Day Weather Forecast

Almanac

Astronomy

Feb. 09, 2016 Rise Set
Actual Time
Civil Twilight
Nautical Twilight
Astronomical Twilight
Moon
Length of Visible Light
Length of Day
Tomorrow will be .
, % of the Moon is Illuminated

Today's Extremes

State Highs State Lows

Community

WunderPhotos

Upload Photos

1,891,598 photos uploaded!

WunderBlog® & News

Nearby

Air Quality

  Air Quality AQ Index Pollutant
Not available.

Snow Depth

Station Depth Elevation

Earthquake Activity

City Distance Mag. Time & Date
Minimum magnitude displayed is 2.5.

Coastal Water Temperatures

Place Temperature

Stations

Nearby Weather Stations

Station Location Temp. Windchill Dew Point Humidity Wind Precip. Elev Updated Type
                   

Watches & Warnings

Winter Weather Advisory
Issued: 3:13 AM EST Feb. 9, 2016 – National Weather Service

... Winter Weather Advisory remains in effect until 7 am EST
Wednesday...

* snow accumulation... 3 to 5 inches.

* Period of most intense snow... through this evening.

* Snow ending... snow showers will gradually taper down through
Tuesday night.

* Impacts... hazardous travel conditions are expected due to snow.

Precautionary/preparedness actions...

A Winter Weather Advisory for snow means that periods of snow
will cause primarily travel difficulties. Be prepared for snow
covered roads and limited visibilities... and use caution while
driving.